sensor_id;sensor_type;location;lat;lon;timestamp;P1;durP1;ratioP1;P2;durP2;ratioP2
21671;SDS011;10997;52.242;8.168;2023-03-14T00:01:20;9.00;;;2.70;;
21671;SDS011;10997;52.242;8.168;2023-03-14T00:06:20;13.05;;;2.95;;
21671;SDS011;10997;52.242;8.168;2023-03-14T00:11:22;6.72;;;2.40;;
21671;SDS011;10997;52.242;8.168;2023-03-14T00:16:23;11.13;;;2.65;;
21671;SDS011;10997;52.242;8.168;2023-03-14T00:21:23;8.98;;;2.95;;
21671;SDS011;10997;52.242;8.168;2023-03-14T00:26:24;9.60;;;2.70;;
21671;SDS011;10997;52.242;8.168;2023-03-14T00:31:25;8.50;;;2.88;;
21671;SDS011;10997;52.242;8.168;2023-03-14T00:36:25;8.13;;;2.92;;
21671;SDS011;10997;52.242;8.168;2023-03-14T00:41:27;11.05;;;2.85;;
21671;SDS011;10997;52.242;8.168;2023-03-14T00:46:28;12.82;;;3.05;;
21671;SDS011;10997;52.242;8.168;2023-03-14T00:51:28;10.50;;;2.90;;
21671;SDS011;10997;52.242;8.168;2023-03-14T00:56:29;5.78;;;2.20;;
21671;SDS011;10997;52.242;8.168;2023-03-14T01:01:30;12.20;;;2.85;;
21671;SDS011;10997;52.242;8.168;2023-03-14T01:06:31;8.18;;;2.55;;
21671;SDS011;10997;52.242;8.168;2023-03-14T01:11:32;10.73;;;2.63;;
21671;SDS011;10997;52.242;8.168;2023-03-14T01:16:34;8.23;;;2.30;;
21671;SDS011;10997;52.242;8.168;2023-03-14T01:21:35;10.98;;;2.40;;
21671;SDS011;10997;52.242;8.168;2023-03-14T01:26:36;10.48;;;2.63;;
21671;SDS011;10997;52.242;8.168;2023-03-14T01:31:36;11.20;;;2.80;;
21671;SDS011;10997;52.242;8.168;2023-03-14T01:36:37;5.53;;;2.15;;
21671;SDS011;10997;52.242;8.168;2023-03-14T01:41:38;12.30;;;2.80;;
21671;SDS011;10997;52.242;8.168;2023-03-14T01:46:43;8.65;;;2.63;;
21671;SDS011;10997;52.242;8.168;2023-03-14T01:56:53;10.68;;;3.00;;
21671;SDS011;10997;52.242;8.168;2023-03-14T02:02:04;8.95;;;2.65;;
21671;SDS011;10997;52.242;8.168;2023-03-14T02:07:10;11.48;;;2.38;;
21671;SDS011;10997;52.242;8.168;2023-03-14T02:12:16;15.23;;;2.80;;
21671;SDS011;10997;52.242;8.168;2023-03-14T02:17:18;8.55;;;2.53;;
21671;SDS011;10997;52.242;8.168;2023-03-14T02:22:20;7.70;;;2.60;;
21671;SDS011;10997;52.242;8.168;2023-03-14T02:27:21;10.43;;;3.03;;
21671;SDS011;10997;52.242;8.168;2023-03-14T02:32:22;10.32;;;2.30;;
21671;SDS011;10997;52.242;8.168;2023-03-14T02:37:27;10.90;;;2.80;;
21671;SDS011;10997;52.242;8.168;2023-03-14T02:42:34;11.88;;;2.72;;
21671;SDS011;10997;52.242;8.168;2023-03-14T02:47:36;6.90;;;2.40;;
21671;SDS011;10997;52.242;8.168;2023-03-14T02:52:42;8.60;;;2.08;;
21671;SDS011;10997;52.242;8.168;2023-03-14T02:57:43;10.23;;;2.33;;
21671;SDS011;10997;52.242;8.168;2023-03-14T03:02:43;8.60;;;1.88;;
21671;SDS011;10997;52.242;8.168;2023-03-14T03:07:44;7.53;;;2.45;;
21671;SDS011;10997;52.242;8.168;2023-03-14T03:12:44;5.47;;;1.75;;
21671;SDS011;10997;52.242;8.168;2023-03-14T03:17:45;7.55;;;2.10;;
21671;SDS011;10997;52.242;8.168;2023-03-14T03:22:46;13.23;;;2.47;;
21671;SDS011;10997;52.242;8.168;2023-03-14T03:27:47;6.15;;;1.85;;
21671;SDS011;10997;52.242;8.168;2023-03-14T03:32:47;5.80;;;1.90;;
21671;SDS011;10997;52.242;8.168;2023-03-14T03:37:48;9.27;;;2.50;;
21671;SDS011;10997;52.242;8.168;2023-03-14T03:42:49;7.20;;;2.25;;
21671;SDS011;10997;52.242;8.168;2023-03-14T03:47:49;6.85;;;2.05;;
21671;SDS011;10997;52.242;8.168;2023-03-14T03:52:50;8.27;;;1.80;;
21671;SDS011;10997;52.242;8.168;2023-03-14T03:57:50;5.88;;;1.67;;
21671;SDS011;10997;52.242;8.168;2023-03-14T04:02:51;7.13;;;2.13;;
21671;SDS011;10997;52.242;8.168;2023-03-14T04:07:52;7.35;;;1.95;;
21671;SDS011;10997;52.242;8.168;2023-03-14T04:12:52;7.68;;;2.10;;
21671;SDS011;10997;52.242;8.168;2023-03-14T04:17:56;7.20;;;2.35;;
21671;SDS011;10997;52.242;8.168;2023-03-14T04:22:58;10.18;;;3.08;;
21671;SDS011;10997;52.242;8.168;2023-03-14T04:27:58;10.13;;;4.05;;
21671;SDS011;10997;52.242;8.168;2023-03-14T04:32:59;8.73;;;4.32;;
21671;SDS011;10997;52.242;8.168;2023-03-14T04:37:59;13.75;;;5.28;;
21671;SDS011;10997;52.242;8.168;2023-03-14T04:43:00;13.35;;;5.68;;
21671;SDS011;10997;52.242;8.168;2023-03-14T04:48:00;13.98;;;6.13;;
21671;SDS011;10997;52.242;8.168;2023-03-14T04:53:01;11.55;;;6.20;;
21671;SDS011;10997;52.242;8.168;2023-03-14T04:58:02;16.55;;;6.38;;
21671;SDS011;10997;52.242;8.168;2023-03-14T05:08:59;19.73;;;6.60;;
21671;SDS011;10997;52.242;8.168;2023-03-14T05:13:59;13.75;;;5.68;;
21671;SDS011;10997;52.242;8.168;2023-03-14T05:19:00;13.68;;;5.03;;
21671;SDS011;10997;52.242;8.168;2023-03-14T05:24:01;14.45;;;5.05;;
21671;SDS011;10997;52.242;8.168;2023-03-14T05:29:02;12.52;;;4.53;;
21671;SDS011;10997;52.242;8.168;2023-03-14T05:34:02;12.80;;;4.30;;
21671;SDS011;10997;52.242;8.168;2023-03-14T05:39:03;12.73;;;3.15;;
21671;SDS011;10997;52.242;8.168;2023-03-14T05:44:03;15.07;;;3.70;;
21671;SDS011;10997;52.242;8.168;2023-03-14T05:49:04;9.27;;;3.08;;
21671;SDS011;10997;52.242;8.168;2023-03-14T05:54:05;12.00;;;2.80;;
21671;SDS011;10997;52.242;8.168;2023-03-14T05:59:05;8.50;;;2.92;;
21671;SDS011;10997;52.242;8.168;2023-03-14T06:04:09;12.55;;;3.30;;
21671;SDS011;10997;52.242;8.168;2023-03-14T06:09:13;9.18;;;2.80;;
21671;SDS011;10997;52.242;8.168;2023-03-14T06:14:14;6.88;;;2.67;;
21671;SDS011;10997;52.242;8.168;2023-03-14T06:19:14;8.80;;;2.33;;
21671;SDS011;10997;52.242;8.168;2023-03-14T06:24:15;11.27;;;2.25;;
21671;SDS011;10997;52.242;8.168;2023-03-14T06:29:15;6.68;;;1.88;;
21671;SDS011;10997;52.242;8.168;2023-03-14T06:34:16;3.58;;;1.52;;
21671;SDS011;10997;52.242;8.168;2023-03-14T06:39:17;4.43;;;1.80;;
21671;SDS011;10997;52.242;8.168;2023-03-14T06:44:17;8.05;;;1.77;;
21671;SDS011;10997;52.242;8.168;2023-03-14T06:49:18;4.32;;;1.48;;
21671;SDS011;10997;52.242;8.168;2023-03-14T06:54:18;7.18;;;1.48;;
21671;SDS011;10997;52.242;8.168;2023-03-14T06:59:19;4.78;;;1.38;;
21671;SDS011;10997;52.242;8.168;2023-03-14T07:04:20;6.50;;;1.27;;
21671;SDS011;10997;52.242;8.168;2023-03-14T07:09:20;4.57;;;1.40;;
21671;SDS011;10997;52.242;8.168;2023-03-14T07:14:21;3.67;;;1.20;;
21671;SDS011;10997;52.242;8.168;2023-03-14T07:19:21;6.25;;;1.27;;
21671;SDS011;10997;52.242;8.168;2023-03-14T07:24:22;4.63;;;1.45;;
21671;SDS011;10997;52.242;8.168;2023-03-14T07:29:23;2.88;;;1.40;;
21671;SDS011;10997;52.242;8.168;2023-03-14T07:34:23;3.53;;;2.17;;
21671;SDS011;10997;52.242;8.168;2023-03-14T07:39:24;3.03;;;2.58;;
21671;SDS011;10997;52.242;8.168;2023-03-14T07:44:24;4.13;;;3.33;;
21671;SDS011;10997;52.242;8.168;2023-03-14T07:49:25;4.45;;;3.60;;
21671;SDS011;10997;52.242;8.168;2023-03-14T07:54:26;6.22;;;3.80;;
21671;SDS011;10997;52.242;8.168;2023-03-14T07:59:27;4.78;;;3.88;;
21671;SDS011;10997;52.242;8.168;2023-03-14T08:04:28;6.47;;;4.57;;
21671;SDS011;10997;52.242;8.168;2023-03-14T08:09:28;3.53;;;3.22;;
21671;SDS011;10997;52.242;8.168;2023-03-14T08:20:23;4.60;;;4.15;;
21671;SDS011;10997;52.242;8.168;2023-03-14T08:25:26;6.13;;;5.63;;
21671;SDS011;10997;52.242;8.168;2023-03-14T08:30:27;7.38;;;6.70;;
21671;SDS011;10997;52.242;8.168;2023-03-14T08:35:28;7.60;;;6.90;;
21671;SDS011;10997;52.242;8.168;2023-03-14T08:40:28;7.30;;;6.60;;
21671;SDS011;10997;52.242;8.168;2023-03-14T08:45:29;10.40;;;7.10;;
21671;SDS011;10997;52.242;8.168;2023-03-14T08:50:30;8.52;;;7.68;;
21671;SDS011;10997;52.242;8.168;2023-03-14T08:55:30;8.60;;;7.80;;
21671;SDS011;10997;52.242;8.168;2023-03-14T09:00:31;12.30;;;9.57;;
21671;SDS011;10997;52.242;8.168;2023-03-14T09:05:32;10.20;;;9.30;;
21671;SDS011;10997;52.242;8.168;2023-03-14T09:10:34;10.18;;;9.18;;
21671;SDS011;10997;52.242;8.168;2023-03-14T09:15:34;11.93;;;10.82;;
21671;SDS011;10997;52.242;8.168;2023-03-14T09:20:35;12.50;;;11.23;;
21671;SDS011;10997;52.242;8.168;2023-03-14T09:25:36;13.27;;;11.98;;
21671;SDS011;10997;52.242;8.168;2023-03-14T09:30:36;13.90;;;12.32;;
21671;SDS011;10997;52.242;8.168;2023-03-14T09:35:37;12.68;;;11.48;;
21671;SDS011;10997;52.242;8.168;2023-03-14T09:40:38;13.00;;;11.80;;
21671;SDS011;10997;52.242;8.168;2023-03-14T09:45:39;11.85;;;10.85;;
21671;SDS011;10997;52.242;8.168;2023-03-14T09:50:43;9.05;;;6.88;;
21671;SDS011;10997;52.242;8.168;2023-03-14T09:55:49;2.07;;;1.00;;
21671;SDS011;10997;52.242;8.168;2023-03-14T10:00:52;0.73;;;0.60;;
21671;SDS011;10997;52.242;8.168;2023-03-14T10:05:55;1.60;;;0.73;;
21671;SDS011;10997;52.242;8.168;2023-03-14T10:10:56;1.80;;;0.77;;
21671;SDS011;10997;52.242;8.168;2023-03-14T10:16:01;3.38;;;1.05;;
21671;SDS011;10997;52.242;8.168;2023-03-14T10:26:17;0.75;;;0.60;;
21671;SDS011;10997;52.242;8.168;2023-03-14T10:31:25;1.15;;;0.40;;
21671;SDS011;10997;52.242;8.168;2023-03-14T10:36:27;0.45;;;0.43;;
21671;SDS011;10997;52.242;8.168;2023-03-14T10:41:30;2.17;;;0.60;;
21671;SDS011;10997;52.242;8.168;2023-03-14T10:46:33;0.40;;;0.38;;
21671;SDS011;10997;52.242;8.168;2023-03-14T10:51:34;1.15;;;0.50;;
21671;SDS011;10997;52.242;8.168;2023-03-14T10:56:35;1.95;;;0.63;;
21671;SDS011;10997;52.242;8.168;2023-03-14T11:01:39;0.95;;;0.73;;
21671;SDS011;10997;52.242;8.168;2023-03-14T11:12:19;1.88;;;0.80;;
21671;SDS011;10997;52.242;8.168;2023-03-14T11:17:46;1.33;;;0.80;;
21671;SDS011;10997;52.242;8.168;2023-03-14T11:28:36;1.65;;;0.80;;
21671;SDS011;10997;52.242;8.168;2023-03-14T11:33:39;5.13;;;1.23;;
21671;SDS011;10997;52.242;8.168;2023-03-14T11:38:50;5.10;;;1.15;;
21671;SDS011;10997;52.242;8.168;2023-03-14T11:43:56;3.92;;;1.25;;
21671;SDS011;10997;52.242;8.168;2023-03-14T11:54:39;9.63;;;1.60;;
21671;SDS011;10997;52.242;8.168;2023-03-14T12:04:52;6.03;;;1.17;;
21671;SDS011;10997;52.242;8.168;2023-03-14T12:10:01;8.50;;;1.40;;
21671;SDS011;10997;52.242;8.168;2023-03-14T12:15:03;7.68;;;1.40;;
21671;SDS011;10997;52.242;8.168;2023-03-14T12:25:19;12.25;;;2.38;;
21671;SDS011;10997;52.242;8.168;2023-03-14T12:30:29;14.65;;;2.13;;
21671;SDS011;10997;52.242;8.168;2023-03-14T12:35:33;17.35;;;2.50;;
21671;SDS011;10997;52.242;8.168;2023-03-14T12:40:41;13.43;;;2.45;;
21671;SDS011;10997;52.242;8.168;2023-03-14T12:51:18;21.88;;;3.15;;
21671;SDS011;10997;52.242;8.168;2023-03-14T12:56:24;19.02;;;2.80;;
21671;SDS011;10997;52.242;8.168;2023-03-14T13:01:28;26.50;;;3.13;;
21671;SDS011;10997;52.242;8.168;2023-03-14T13:11:48;21.42;;;3.00;;
21671;SDS011;10997;52.242;8.168;2023-03-14T13:16:49;22.58;;;3.63;;
21671;SDS011;10997;52.242;8.168;2023-03-14T13:21:49;17.85;;;3.10;;
21671;SDS011;10997;52.242;8.168;2023-03-14T13:26:52;19.48;;;2.92;;
21671;SDS011;10997;52.242;8.168;2023-03-14T13:31:55;18.92;;;3.10;;
21671;SDS011;10997;52.242;8.168;2023-03-14T13:37:00;19.03;;;2.90;;
21671;SDS011;10997;52.242;8.168;2023-03-14T13:42:01;24.83;;;3.63;;
21671;SDS011;10997;52.242;8.168;2023-03-14T13:47:02;22.08;;;3.33;;
21671;SDS011;10997;52.242;8.168;2023-03-14T13:52:21;21.75;;;3.70;;
21671;SDS011;10997;52.242;8.168;2023-03-14T13:58:03;15.98;;;2.55;;
21671;SDS011;10997;52.242;8.168;2023-03-14T14:02:57;16.80;;;2.72;;
21671;SDS011;10997;52.242;8.168;2023-03-14T14:07:59;13.38;;;2.70;;
21671;SDS011;10997;52.242;8.168;2023-03-14T14:13:03;10.98;;;2.47;;
21671;SDS011;10997;52.242;8.168;2023-03-14T14:18:09;12.73;;;2.13;;
21671;SDS011;10997;52.242;8.168;2023-03-14T14:23:21;10.73;;;2.25;;
21671;SDS011;10997;52.242;8.168;2023-03-14T14:33:37;7.82;;;1.67;;
21671;SDS011;10997;52.242;8.168;2023-03-14T14:38:40;14.07;;;2.38;;
21671;SDS011;10997;52.242;8.168;2023-03-14T14:43:40;10.43;;;1.92;;
21671;SDS011;10997;52.242;8.168;2023-03-14T14:48:41;16.42;;;3.97;;
21671;SDS011;10997;52.242;8.168;2023-03-14T14:53:43;9.25;;;2.28;;
21671;SDS011;10997;52.242;8.168;2023-03-14T14:58:44;4.70;;;1.63;;
21671;SDS011;10997;52.242;8.168;2023-03-14T15:03:47;12.82;;;1.75;;
21671;SDS011;10997;52.242;8.168;2023-03-14T15:08:50;10.75;;;1.40;;
21671;SDS011;10997;52.242;8.168;2023-03-14T15:13:52;8.07;;;1.70;;
21671;SDS011;10997;52.242;8.168;2023-03-14T15:18:55;10.10;;;1.77;;
21671;SDS011;10997;52.242;8.168;2023-03-14T15:23:58;9.15;;;2.13;;
21671;SDS011;10997;52.242;8.168;2023-03-14T15:28:58;11.50;;;1.85;;
21671;SDS011;10997;52.242;8.168;2023-03-14T15:33:59;9.77;;;1.98;;
21671;SDS011;10997;52.242;8.168;2023-03-14T15:39:00;14.13;;;1.90;;
21671;SDS011;10997;52.242;8.168;2023-03-14T15:44:00;12.07;;;2.22;;
21671;SDS011;10997;52.242;8.168;2023-03-14T15:49:01;8.20;;;1.95;;
21671;SDS011;10997;52.242;8.168;2023-03-14T15:54:02;16.77;;;2.50;;
21671;SDS011;10997;52.242;8.168;2023-03-14T15:59:02;17.65;;;3.17;;
21671;SDS011;10997;52.242;8.168;2023-03-14T16:04:03;14.40;;;2.28;;
21671;SDS011;10997;52.242;8.168;2023-03-14T16:09:03;15.60;;;3.30;;
21671;SDS011;10997;52.242;8.168;2023-03-14T16:14:04;19.23;;;3.80;;
21671;SDS011;10997;52.242;8.168;2023-03-14T16:19:06;14.35;;;3.13;;
21671;SDS011;10997;52.242;8.168;2023-03-14T16:24:07;10.93;;;3.22;;
21671;SDS011;10997;52.242;8.168;2023-03-14T16:29:08;13.00;;;3.22;;
21671;SDS011;10997;52.242;8.168;2023-03-14T16:34:08;12.32;;;2.60;;
21671;SDS011;10997;52.242;8.168;2023-03-14T16:39:09;9.65;;;2.15;;
21671;SDS011;10997;52.242;8.168;2023-03-14T16:44:10;11.65;;;1.92;;
21671;SDS011;10997;52.242;8.168;2023-03-14T16:49:10;6.30;;;1.92;;
21671;SDS011;10997;52.242;8.168;2023-03-14T16:54:11;11.00;;;2.08;;
21671;SDS011;10997;52.242;8.168;2023-03-14T16:59:11;10.70;;;1.75;;
21671;SDS011;10997;52.242;8.168;2023-03-14T17:04:12;8.32;;;1.88;;
21671;SDS011;10997;52.242;8.168;2023-03-14T17:09:13;8.65;;;1.77;;
21671;SDS011;10997;52.242;8.168;2023-03-14T17:14:13;8.15;;;1.80;;
21671;SDS011;10997;52.242;8.168;2023-03-14T17:19:14;8.20;;;1.67;;
21671;SDS011;10997;52.242;8.168;2023-03-14T17:24:14;11.00;;;1.90;;
21671;SDS011;10997;52.242;8.168;2023-03-14T17:29:15;9.18;;;1.58;;
21671;SDS011;10997;52.242;8.168;2023-03-14T17:34:16;8.00;;;1.60;;
21671;SDS011;10997;52.242;8.168;2023-03-14T17:39:16;9.65;;;1.60;;
21671;SDS011;10997;52.242;8.168;2023-03-14T17:44:17;6.63;;;1.70;;
21671;SDS011;10997;52.242;8.168;2023-03-14T17:49:17;7.47;;;1.77;;
21671;SDS011;10997;52.242;8.168;2023-03-14T17:54:18;9.95;;;1.70;;
21671;SDS011;10997;52.242;8.168;2023-03-14T17:59:18;8.80;;;1.85;;
21671;SDS011;10997;52.242;8.168;2023-03-14T18:04:19;6.90;;;2.10;;
21671;SDS011;10997;52.242;8.168;2023-03-14T18:09:20;7.75;;;1.77;;
21671;SDS011;10997;52.242;8.168;2023-03-14T18:14:20;24.23;;;7.85;;
21671;SDS011;10997;52.242;8.168;2023-03-14T18:19:21;10.95;;;2.22;;
21671;SDS011;10997;52.242;8.168;2023-03-14T18:24:22;11.18;;;2.25;;
21671;SDS011;10997;52.242;8.168;2023-03-14T18:29:23;13.15;;;2.08;;
21671;SDS011;10997;52.242;8.168;2023-03-14T18:34:24;9.80;;;2.45;;
21671;SDS011;10997;52.242;8.168;2023-03-14T18:39:25;11.70;;;2.40;;
21671;SDS011;10997;52.242;8.168;2023-03-14T18:44:26;8.18;;;2.35;;
21671;SDS011;10997;52.242;8.168;2023-03-14T18:49:26;6.57;;;2.10;;
21671;SDS011;10997;52.242;8.168;2023-03-14T18:54:27;11.40;;;1.83;;
21671;SDS011;10997;52.242;8.168;2023-03-14T18:59:28;8.50;;;1.73;;
21671;SDS011;10997;52.242;8.168;2023-03-14T19:04:28;8.27;;;2.40;;
21671;SDS011;10997;52.242;8.168;2023-03-14T19:09:29;6.82;;;2.00;;
21671;SDS011;10997;52.242;8.168;2023-03-14T19:14:30;12.10;;;2.15;;
21671;SDS011;10997;52.242;8.168;2023-03-14T19:19:31;11.13;;;2.03;;
21671;SDS011;10997;52.242;8.168;2023-03-14T19:24:31;9.85;;;1.98;;
21671;SDS011;10997;52.242;8.168;2023-03-14T19:29:33;15.82;;;2.13;;
21671;SDS011;10997;52.242;8.168;2023-03-14T19:34:40;9.30;;;2.00;;
21671;SDS011;10997;52.242;8.168;2023-03-14T19:39:43;10.35;;;2.00;;
21671;SDS011;10997;52.242;8.168;2023-03-14T19:44:45;12.68;;;2.45;;
21671;SDS011;10997;52.242;8.168;2023-03-14T19:49:46;12.82;;;2.15;;
21671;SDS011;10997;52.242;8.168;2023-03-14T19:54:47;13.02;;;2.22;;
21671;SDS011;10997;52.242;8.168;2023-03-14T19:59:47;15.35;;;2.33;;
21671;SDS011;10997;52.242;8.168;2023-03-14T20:04:48;14.15;;;2.25;;
21671;SDS011;10997;52.242;8.168;2023-03-14T20:09:49;11.80;;;1.92;;
21671;SDS011;10997;52.242;8.168;2023-03-14T20:14:49;12.23;;;1.95;;
21671;SDS011;10997;52.242;8.168;2023-03-14T20:19:50;11.38;;;2.05;;
21671;SDS011;10997;52.242;8.168;2023-03-14T20:24:50;9.43;;;2.30;;
21671;SDS011;10997;52.242;8.168;2023-03-14T20:29:54;17.50;;;2.88;;
21671;SDS011;10997;52.242;8.168;2023-03-14T20:34:55;14.65;;;5.18;;
21671;SDS011;10997;52.242;8.168;2023-03-14T20:39:56;11.68;;;2.40;;
21671;SDS011;10997;52.242;8.168;2023-03-14T20:44:57;12.80;;;2.00;;
21671;SDS011;10997;52.242;8.168;2023-03-14T20:49:57;13.85;;;2.33;;
21671;SDS011;10997;52.242;8.168;2023-03-14T20:55:00;9.48;;;1.90;;
21671;SDS011;10997;52.242;8.168;2023-03-14T21:00:01;10.73;;;1.92;;
21671;SDS011;10997;52.242;8.168;2023-03-14T21:05:06;10.18;;;2.42;;
21671;SDS011;10997;52.242;8.168;2023-03-14T21:10:10;11.70;;;2.17;;
21671;SDS011;10997;52.242;8.168;2023-03-14T21:15:12;10.15;;;2.00;;
21671;SDS011;10997;52.242;8.168;2023-03-14T21:20:13;15.95;;;2.00;;
21671;SDS011;10997;52.242;8.168;2023-03-14T21:25:15;13.63;;;2.05;;
21671;SDS011;10997;52.242;8.168;2023-03-14T21:30:16;12.70;;;2.42;;
21671;SDS011;10997;52.242;8.168;2023-03-14T21:35:17;12.20;;;2.10;;
21671;SDS011;10997;52.242;8.168;2023-03-14T21:40:17;13.73;;;2.55;;
21671;SDS011;10997;52.242;8.168;2023-03-14T21:45:19;11.25;;;2.55;;
21671;SDS011;10997;52.242;8.168;2023-03-14T21:50:26;9.98;;;2.30;;
21671;SDS011;10997;52.242;8.168;2023-03-14T21:55:30;11.98;;;2.63;;
21671;SDS011;10997;52.242;8.168;2023-03-14T22:00:31;17.55;;;2.70;;
21671;SDS011;10997;52.242;8.168;2023-03-14T22:05:31;16.85;;;2.85;;
21671;SDS011;10997;52.242;8.168;2023-03-14T22:10:32;15.65;;;2.00;;
21671;SDS011;10997;52.242;8.168;2023-03-14T22:15:33;17.73;;;2.67;;
21671;SDS011;10997;52.242;8.168;2023-03-14T22:20:33;13.77;;;2.40;;
21671;SDS011;10997;52.242;8.168;2023-03-14T22:25:34;16.00;;;2.75;;
21671;SDS011;10997;52.242;8.168;2023-03-14T22:30:37;13.07;;;2.60;;
21671;SDS011;10997;52.242;8.168;2023-03-14T22:35:38;19.67;;;3.15;;
21671;SDS011;10997;52.242;8.168;2023-03-14T22:40:39;13.68;;;2.67;;
21671;SDS011;10997;52.242;8.168;2023-03-14T22:45:39;15.52;;;3.22;;
21671;SDS011;10997;52.242;8.168;2023-03-14T22:50:40;16.42;;;2.67;;
21671;SDS011;10997;52.242;8.168;2023-03-14T22:55:41;13.40;;;1.83;;
21671;SDS011;10997;52.242;8.168;2023-03-14T23:00:41;7.57;;;2.05;;
21671;SDS011;10997;52.242;8.168;2023-03-14T23:05:42;8.60;;;1.77;;
21671;SDS011;10997;52.242;8.168;2023-03-14T23:10:42;12.10;;;2.08;;
21671;SDS011;10997;52.242;8.168;2023-03-14T23:15:43;11.13;;;1.98;;
21671;SDS011;10997;52.242;8.168;2023-03-14T23:20:44;15.35;;;2.55;;
21671;SDS011;10997;52.242;8.168;2023-03-14T23:25:46;12.43;;;1.98;;
21671;SDS011;10997;52.242;8.168;2023-03-14T23:30:52;6.88;;;1.58;;
21671;SDS011;10997;52.242;8.168;2023-03-14T23:35:54;12.50;;;2.35;;
21671;SDS011;10997;52.242;8.168;2023-03-14T23:41:00;12.68;;;2.30;;
21671;SDS011;10997;52.242;8.168;2023-03-14T23:46:02;15.52;;;2.63;;
21671;SDS011;10997;52.242;8.168;2023-03-14T23:51:03;16.60;;;3.13;;
21671;SDS011;10997;52.242;8.168;2023-03-14T23:56:05;9.40;;;2.00;;
